createdAt,value
2018-11-25T00:00:18.028Z,63.60
2018-11-25T00:04:21.089Z,79.40
2018-11-25T00:08:23.963Z,71.13
2018-11-25T00:12:27.017Z,58.90
2018-11-25T00:16:30.089Z,72.07
2018-11-25T00:20:32.964Z,71.07
2018-11-25T00:24:36.045Z,69.50
2018-11-25T00:28:38.911Z,61.23
2018-11-25T00:32:42.004Z,72.23
2018-11-25T00:36:44.861Z,68.13
2018-11-25T00:40:47.728Z,66.90
2018-11-25T00:44:50.800Z,71.53
2018-11-25T00:48:53.664Z,64.03
2018-11-25T00:52:56.728Z,59.10
2018-11-25T00:56:59.797Z,58.93
2018-11-25T01:01:02.642Z,64.57
2018-11-25T01:05:05.554Z,50.13
2018-11-25T01:09:08.688Z,61.97
2018-11-25T01:13:11.552Z,59.73
2018-11-25T01:17:14.404Z,49.93
2018-11-25T01:21:17.292Z,58.93
2018-11-25T01:25:20.143Z,61.03
2018-11-25T01:29:23.004Z,59.30
2018-11-25T01:33:25.868Z,50.67
2018-11-25T01:37:28.945Z,48.87
2018-11-25T01:41:32.011Z,60.47
2018-11-25T01:45:34.908Z,68.40
2018-11-25T01:49:37.768Z,67.60
2018-11-25T01:53:40.647Z,82.40
2018-11-25T01:57:43.732Z,56.40
2018-11-25T02:01:46.599Z,60.80
2018-11-25T02:05:49.464Z,58.67
2018-11-25T02:09:52.546Z,49.17
2018-11-25T02:13:55.400Z,47.90
2018-11-25T02:17:58.264Z,48.47
2018-11-25T02:22:01.364Z,66.03
2018-11-25T02:26:04.221Z,59.77
2018-11-25T02:30:08.716Z,56.90
2018-11-25T02:34:11.581Z,53.83
2018-11-25T02:38:14.443Z,60.27
2018-11-25T02:42:17.307Z,58.03
2018-11-25T02:46:20.163Z,47.30
2018-11-25T02:50:23.744Z,50.53
2018-11-25T02:54:26.603Z,55.10
2018-11-25T02:58:29.468Z,57.50
2018-11-25T03:02:32.524Z,62.70
2018-11-25T03:06:35.593Z,69.80
2018-11-25T03:10:38.440Z,65.23
2018-11-25T03:14:41.307Z,73.37
2018-11-25T03:18:44.374Z,67.63
2018-11-25T03:22:47.252Z,67.53
2018-11-25T03:26:50.106Z,64.50
2018-11-25T03:30:52.971Z,63.63
2018-11-25T03:34:56.035Z,60.37
2018-11-25T03:38:59.044Z,53.77
2018-11-25T03:43:01.904Z,58.70
2018-11-25T03:47:05.029Z,54.70
2018-11-25T03:51:07.880Z,59.10
2018-11-25T03:55:12.271Z,68.53
2018-11-25T03:59:15.124Z,58.90
2018-11-25T04:03:18.201Z,58.53
2018-11-25T04:07:21.052Z,56.80
2018-11-25T04:11:23.917Z,51.37
2018-11-25T04:15:26.780Z,54.13
2018-11-25T04:19:29.647Z,57.83
2018-11-25T04:23:32.724Z,54.87
2018-11-25T04:27:35.608Z,56.63
2018-11-25T04:31:38.671Z,53.87
2018-11-25T04:35:41.737Z,57.13
2018-11-25T04:39:44.592Z,53.40
2018-11-25T04:43:47.660Z,61.47
2018-11-25T04:47:50.515Z,55.57
2018-11-25T04:51:53.375Z,63.43
2018-11-25T04:55:56.223Z,59.80
2018-11-25T04:59:59.093Z,66.77
2018-11-25T05:04:02.157Z,59.70
2018-11-25T05:08:05.289Z,51.47
2018-11-25T05:12:08.350Z,61.20
2018-11-25T05:16:11.416Z,64.63
2018-11-25T05:20:14.572Z,65.03
2018-11-25T05:24:17.660Z,58.83
2018-11-25T05:28:20.520Z,59.93
2018-11-25T05:32:23.393Z,69.27
2018-11-25T05:36:26.444Z,68.40
2018-11-25T05:40:29.303Z,53.10
2018-11-25T05:44:32.168Z,61.97
2018-11-25T05:48:35.027Z,62.07
2018-11-25T05:52:37.880Z,57.53
2018-11-25T05:56:40.957Z,62.77
2018-11-25T06:00:43.808Z,57.87
2018-11-25T06:04:46.677Z,70.03
2018-11-25T06:08:49.525Z,62.40
2018-11-25T06:12:52.579Z,63.30
2018-11-25T06:16:55.446Z,80.10
2018-11-25T06:20:58.528Z,72.70
2018-11-25T06:25:01.388Z,66.70
2018-11-25T06:29:04.304Z,72.73
2018-11-25T06:33:07.123Z,72.30
2018-11-25T06:37:10.188Z,92.80
2018-11-25T06:41:13.248Z,79.50
2018-11-25T06:45:18.759Z,84.77
2018-11-25T06:49:21.825Z,101.10
2018-11-25T06:53:24.692Z,84.47
2018-11-25T06:57:27.564Z,93.07
2018-11-25T07:01:30.423Z,93.47
2018-11-25T07:05:33.488Z,92.73
2018-11-25T07:09:36.361Z,82.03
2018-11-25T07:13:39.212Z,78.90
2018-11-25T07:17:42.286Z,88.87
2018-11-25T07:21:45.136Z,81.63
2018-11-25T07:25:48.024Z,89.03
2018-11-25T07:29:51.081Z,85.50
2018-11-25T07:33:53.952Z,96.80
2018-11-25T07:37:56.804Z,80.37
2018-11-25T07:41:59.957Z,82.83
2018-11-25T07:46:02.812Z,76.37
2018-11-25T07:50:06.396Z,89.53
2018-11-25T07:54:09.252Z,76.33
2018-11-25T07:58:12.316Z,86.10
2018-11-25T08:02:15.172Z,78.57
2018-11-25T08:06:18.248Z,69.00
2018-11-25T08:10:21.300Z,76.60
2018-11-25T08:14:24.160Z,81.67
2018-11-25T08:18:27.228Z,74.07
2018-11-25T08:22:30.100Z,73.77
2018-11-25T08:26:32.980Z,80.10
2018-11-25T08:30:35.846Z,85.97
2018-11-25T08:34:38.704Z,72.47
2018-11-25T08:38:41.909Z,75.00
2018-11-25T08:42:44.764Z,83.90
2018-11-25T08:46:47.636Z,75.70
2018-11-25T08:50:50.696Z,68.83
2018-11-25T08:54:53.564Z,73.97
2018-11-25T08:58:56.424Z,77.53
2018-11-25T09:02:59.512Z,80.67
2018-11-25T09:07:02.372Z,78.10
2018-11-25T09:11:05.323Z,69.53
2018-11-25T09:15:14.424Z,62.33
2018-11-25T09:19:17.492Z,69.17
2018-11-25T09:23:20.350Z,66.23
2018-11-25T09:27:23.229Z,60.17
2018-11-25T09:31:26.296Z,64.87
2018-11-25T09:35:29.382Z,65.50
2018-11-25T09:39:32.429Z,73.70
2018-11-25T09:43:35.522Z,68.67
2018-11-25T09:47:38.423Z,67.30
2018-11-25T09:51:41.288Z,60.83
2018-11-25T09:55:44.149Z,64.80
2018-11-25T09:59:47.020Z,58.30
2018-11-25T10:03:49.888Z,54.07
2018-11-25T10:07:52.754Z,66.03
2018-11-25T10:11:55.813Z,51.07
2018-11-25T10:15:58.889Z,50.20
2018-11-25T10:20:01.741Z,57.87
2018-11-25T10:24:04.852Z,63.43
2018-11-25T10:28:07.744Z,56.27
2018-11-25T10:32:10.612Z,61.27
2018-11-25T10:36:13.680Z,47.80
2018-11-25T10:40:17.175Z,48.90
2018-11-25T10:44:20.024Z,57.70
2018-11-25T10:48:22.896Z,56.80
2018-11-25T10:52:25.960Z,59.43
2018-11-25T10:56:28.831Z,72.83
2018-11-25T11:00:37.891Z,61.23
2018-11-25T11:04:46.340Z,67.07
2018-11-25T11:08:49.437Z,62.17
2018-11-25T11:12:52.556Z,60.70
2018-11-25T11:16:55.625Z,69.43
2018-11-25T11:20:58.520Z,64.30
2018-11-25T11:25:01.380Z,67.60
2018-11-25T11:29:04.705Z,79.57
2018-11-25T11:33:07.765Z,76.87
2018-11-25T11:37:10.705Z,74.03
2018-11-25T11:41:13.561Z,60.30
2018-11-25T11:45:16.437Z,72.10
2018-11-25T11:49:19.296Z,64.47
2018-11-25T11:53:22.164Z,75.77
2018-11-25T11:57:25.240Z,74.70
2018-11-25T12:01:28.108Z,68.30
2018-11-25T12:05:30.973Z,76.30
2018-11-25T12:09:33.852Z,72.93
2018-11-25T12:13:36.714Z,68.87
2018-11-25T12:17:39.780Z,68.63
2018-11-25T12:21:42.667Z,78.37
2018-11-25T12:25:45.781Z,76.43
2018-11-25T12:29:49.512Z,64.50
2018-11-25T12:33:52.593Z,68.83
2018-11-25T12:37:55.450Z,73.80
2018-11-25T12:41:58.323Z,74.47
2018-11-25T12:46:01.421Z,78.13
2018-11-25T12:50:04.287Z,73.60
2018-11-25T12:54:07.148Z,78.97
2018-11-25T12:58:10.024Z,71.90
2018-11-25T13:02:12.884Z,77.00
2018-11-25T13:06:15.980Z,71.40
2018-11-25T13:10:18.840Z,66.67
2018-11-25T13:14:21.724Z,77.57
2018-11-25T13:18:24.604Z,75.87
2018-11-25T13:22:27.484Z,69.27
2018-11-25T13:26:30.353Z,60.90
2018-11-25T13:30:33.237Z,68.27
2018-11-25T13:34:36.344Z,63.17
2018-11-25T13:38:39.211Z,64.63
2018-11-25T13:42:42.152Z,59.07
2018-11-25T13:46:45.028Z,63.17
2018-11-25T13:50:48.097Z,73.70
2018-11-25T13:54:51.008Z,57.60
2018-11-25T13:58:53.904Z,65.80
2018-11-25T14:02:57.109Z,77.53
2018-11-25T14:06:59.998Z,61.10
2018-11-25T14:11:03.824Z,60.33
2018-11-25T14:15:08.420Z,69.40
2018-11-25T14:19:11.360Z,73.23
2018-11-25T14:23:14.244Z,69.73
2018-11-25T14:27:17.344Z,68.00
2018-11-25T14:31:20.235Z,64.90
2018-11-25T14:35:23.120Z,70.63
2018-11-25T14:39:26.205Z,80.73
2018-11-25T14:43:29.102Z,69.80
2018-11-25T14:47:31.956Z,75.87
2018-11-25T14:51:35.060Z,70.27
2018-11-25T14:55:37.953Z,72.27
2018-11-25T14:59:40.828Z,69.33
2018-11-25T15:03:43.909Z,75.17
2018-11-25T15:07:46.839Z,69.10
2018-11-25T15:11:49.704Z,63.00
2018-11-25T15:15:52.605Z,79.20
2018-11-25T15:19:55.673Z,70.20
2018-11-25T15:23:58.752Z,60.90
2018-11-25T15:28:01.622Z,73.90
2018-11-25T15:32:04.720Z,55.97
2018-11-25T15:36:07.674Z,68.10
2018-11-25T15:40:12.364Z,63.13
2018-11-25T15:44:15.228Z,69.80
2018-11-25T15:48:20.096Z,67.13
2018-11-25T15:52:23.179Z,67.07
2018-11-25T15:56:26.508Z,71.53
2018-11-25T16:00:29.623Z,69.63
2018-11-25T16:04:32.479Z,73.47
2018-11-25T16:08:38.367Z,67.93
2018-11-25T16:12:38.330Z,67.20
2018-11-25T16:16:41.196Z,64.43
2018-11-25T16:20:44.064Z,67.37
2018-11-25T16:24:46.920Z,72.40
2018-11-25T16:28:50.776Z,73.73
2018-11-25T16:32:53.693Z,68.13
2018-11-25T16:36:56.568Z,67.03
2018-11-25T16:40:59.637Z,60.07
2018-11-25T16:45:02.514Z,66.60
2018-11-25T16:49:05.759Z,64.87
2018-11-25T16:53:08.632Z,67.03
2018-11-25T16:57:11.501Z,76.70
2018-11-25T17:01:14.588Z,67.20
2018-11-25T17:05:18.262Z,71.80
2018-11-25T17:09:21.124Z,74.93
2018-11-25T17:13:23.996Z,64.80
2018-11-25T17:17:27.406Z,68.20
2018-11-25T17:21:30.280Z,74.87
2018-11-25T17:25:33.361Z,64.50
2018-11-25T17:29:36.235Z,83.23
2018-11-25T17:33:39.140Z,73.50
2018-11-25T17:37:42.245Z,72.00
2018-11-25T17:41:45.115Z,56.93
2018-11-25T17:45:47.979Z,62.13
2018-11-25T17:49:51.068Z,61.10
2018-11-25T17:53:53.928Z,66.83
2018-11-25T17:57:56.805Z,67.60
2018-11-25T18:01:59.660Z,64.53
2018-11-25T18:06:02.548Z,63.63
2018-11-25T18:10:07.923Z,60.40
2018-11-25T18:14:10.800Z,60.50
2018-11-25T18:18:21.975Z,58.70
2018-11-25T18:22:26.169Z,58.60
2018-11-25T18:26:29.060Z,55.30
2018-11-25T18:30:31.936Z,62.37
2018-11-25T18:34:34.816Z,57.93
2018-11-25T18:38:37.684Z,55.80
2018-11-25T18:42:41.265Z,53.37
2018-11-25T18:46:46.980Z,57.83
2018-11-25T18:50:47.104Z,49.90
2018-11-25T18:54:49.476Z,55.80
2018-11-25T18:58:52.340Z,54.20
2018-11-25T19:02:55.219Z,51.93
2018-11-25T19:06:58.080Z,58.17
2018-11-25T19:11:03.605Z,59.07
2018-11-25T19:15:07.451Z,52.87
2018-11-25T19:19:10.336Z,53.67
2018-11-25T19:23:13.208Z,52.20
2018-11-25T19:27:16.088Z,48.83
2018-11-25T19:31:19.161Z,53.10
2018-11-25T19:35:22.352Z,51.50
2018-11-25T19:39:25.208Z,47.57
2018-11-25T19:43:28.291Z,54.80
2018-11-25T19:47:31.144Z,56.03
2018-11-25T19:51:34.225Z,60.07
2018-11-25T19:55:37.177Z,55.47
2018-11-25T19:59:40.052Z,56.03
2018-11-25T20:03:43.137Z,55.97
2018-11-25T20:07:46.038Z,51.93
2018-11-25T20:11:48.904Z,60.73
2018-11-25T20:15:51.765Z,66.13
2018-11-25T20:19:54.633Z,60.37
2018-11-25T20:23:57.717Z,59.47
2018-11-25T20:28:00.600Z,58.90
2018-11-25T20:32:09.134Z,59.73
2018-11-25T20:36:12.235Z,65.47
2018-11-25T20:40:15.137Z,73.57
2018-11-25T20:44:18.041Z,67.67
2018-11-25T20:48:20.916Z,63.60
2018-11-25T20:52:29.324Z,65.20
2018-11-25T20:56:32.264Z,68.73
2018-11-25T21:00:35.256Z,67.33
2018-11-25T21:04:38.143Z,61.20
2018-11-25T21:08:41.002Z,72.40
2018-11-25T21:12:45.357Z,80.80
2018-11-25T21:16:48.421Z,78.60
2018-11-25T21:20:51.523Z,68.53
2018-11-25T21:24:54.167Z,67.23
2018-11-25T21:28:57.252Z,65.30
2018-11-25T21:33:00.108Z,66.17
2018-11-25T21:37:03.010Z,70.70
2018-11-25T21:41:06.112Z,61.33
2018-11-25T21:45:10.769Z,64.03
2018-11-25T21:49:13.626Z,65.97
2018-11-25T21:53:16.511Z,77.03
2018-11-25T21:57:19.596Z,74.30
2018-11-25T22:01:22.680Z,73.10
2018-11-25T22:05:25.544Z,68.00
2018-11-25T22:09:28.616Z,70.63
2018-11-25T22:13:31.472Z,79.80
2018-11-25T22:17:34.343Z,62.80
2018-11-25T22:21:37.224Z,67.80
2018-11-25T22:25:40.099Z,69.13
2018-11-25T22:29:43.164Z,64.97
2018-11-25T22:33:46.052Z,61.60
2018-11-25T22:37:48.933Z,60.17
2018-11-25T22:41:51.818Z,69.50
2018-11-25T22:45:54.675Z,66.80
2018-11-25T22:49:57.548Z,61.00
2018-11-25T22:54:00.408Z,70.00
2018-11-25T22:58:03.296Z,55.80
2018-11-25T23:02:06.365Z,60.50
2018-11-25T23:06:14.952Z,58.93
2018-11-25T23:10:17.813Z,55.67
2018-11-25T23:14:20.696Z,64.97
2018-11-25T23:18:23.769Z,58.93
2018-11-25T23:22:26.641Z,56.17
2018-11-25T23:26:29.500Z,60.37
2018-11-25T23:30:32.376Z,56.63
2018-11-25T23:34:35.232Z,61.20
2018-11-25T23:38:38.115Z,53.27
2018-11-25T23:42:40.968Z,59.20
2018-11-25T23:46:43.835Z,52.87
2018-11-25T23:50:46.696Z,59.23
2018-11-25T23:54:49.559Z,57.07
2018-11-25T23:58:52.424Z,62.43
